createdAt,value
2024-03-11T00:00:58.738Z,98868.25
2024-03-11T00:04:00.394Z,98873.81
2024-03-11T00:07:04.705Z,98873.81
2024-03-11T00:10:12.772Z,98874.22
2024-03-11T00:13:17.436Z,98882.94
2024-03-11T00:16:19.012Z,98893.44
2024-03-11T00:19:20.454Z,98881.78
2024-03-11T00:22:22.151Z,98885.34
2024-03-11T00:25:23.723Z,98884.50
2024-03-11T00:28:25.179Z,98890.91
2024-03-11T00:31:30.573Z,98897.00
2024-03-11T00:34:33.766Z,98895.44
2024-03-11T00:37:35.950Z,98892.91
2024-03-11T00:40:38.042Z,98900.69
2024-03-11T00:43:39.498Z,98908.88
2024-03-11T00:46:41.297Z,98907.34
2024-03-11T00:49:42.975Z,98910.91
2024-03-11T00:52:45.926Z,98909.44
2024-03-11T00:55:47.615Z,98917.31
2024-03-11T00:58:49.364Z,98917.31
2024-03-11T01:01:51.484Z,98919.69
2024-03-11T01:04:53.699Z,98921.41
2024-03-11T01:07:55.133Z,98914.00
2024-03-11T01:10:59.851Z,98924.66
2024-03-11T01:14:01.391Z,98925.59
2024-03-11T01:17:03.374Z,98937.03
2024-03-11T01:20:07.996Z,98934.41
2024-03-11T01:23:09.669Z,98940.28
2024-03-11T01:26:11.184Z,98944.75
2024-03-11T01:29:13.278Z,98946.63
2024-03-11T01:32:14.756Z,98945.66
2024-03-11T01:35:16.452Z,98952.19
2024-03-11T01:38:19.281Z,98961.00
2024-03-11T01:41:20.829Z,98961.69
2024-03-11T01:44:23.025Z,98959.53
2024-03-11T01:47:26.352Z,98967.84
2024-03-11T01:50:28.010Z,98974.72
2024-03-11T01:53:29.874Z,98966.69
2024-03-11T01:56:32.760Z,98963.13
2024-03-11T01:59:39.068Z,98973.66
2024-03-11T02:02:41.075Z,98970.25
2024-03-11T02:05:44.317Z,98982.44
2024-03-11T02:08:45.894Z,98979.06
2024-03-11T02:11:48.321Z,98981.16
2024-03-11T02:14:50.050Z,98983.09
2024-03-11T02:17:51.610Z,98984.09
2024-03-11T02:20:53.186Z,98989.56
2024-03-11T02:23:54.695Z,98985.31
2024-03-11T02:26:56.174Z,98991.72
2024-03-11T02:29:57.629Z,98995.06
2024-03-11T02:32:59.880Z,98994.03
2024-03-11T02:36:02.392Z,99000.38
2024-03-11T02:39:06.352Z,99000.50
2024-03-11T02:42:07.880Z,99003.88
2024-03-11T02:45:12.830Z,99007.19
2024-03-11T02:48:14.410Z,98999.38
2024-03-11T02:51:15.924Z,99003.75
2024-03-11T02:54:17.791Z,99000.84
2024-03-11T02:57:19.238Z,99006.94
2024-03-11T03:00:21.330Z,99003.63
2024-03-11T03:03:22.881Z,99005.19
2024-03-11T03:06:24.351Z,99012.06
2024-03-11T03:09:25.893Z,99014.75
2024-03-11T03:12:30.551Z,99007.06
2024-03-11T03:15:32.212Z,99017.56
2024-03-11T03:18:35.303Z,99012.44
2024-03-11T03:21:37.085Z,99011.34
2024-03-11T03:24:38.493Z,99024.34
2024-03-11T03:27:40.117Z,99026.81
2024-03-11T03:30:41.586Z,99025.91
2024-03-11T03:33:43.036Z,99025.22
2024-03-11T03:36:44.533Z,99022.81
2024-03-11T03:39:46.011Z,99028.88
2024-03-11T03:42:48.588Z,99030.75
2024-03-11T03:45:50.077Z,99032.47
2024-03-11T03:48:52.604Z,99049.22
2024-03-11T03:51:54.021Z,99047.66
2024-03-11T03:54:55.709Z,99037.09
2024-03-11T03:57:57.162Z,99037.16
2024-03-11T04:01:00.714Z,99049.16
2024-03-11T04:04:02.211Z,99041.41
2024-03-11T04:07:04.311Z,99056.19
2024-03-11T04:10:06.528Z,99049.91
2024-03-11T04:13:08.106Z,99048.66
2024-03-11T04:16:12.990Z,99057.09
2024-03-11T04:19:14.738Z,99054.53
2024-03-11T04:22:16.238Z,99054.63
2024-03-11T04:25:26.623Z,99053.03
2024-03-11T04:28:29.726Z,99059.09
2024-03-11T04:31:34.072Z,99051.84
2024-03-11T04:34:39.896Z,99047.78
2024-03-11T04:37:41.360Z,99049.78
2024-03-11T04:40:48.458Z,99047.25
2024-03-11T04:43:50.281Z,99045.72
2024-03-11T04:46:51.892Z,99051.16
2024-03-11T04:49:53.333Z,99050.34
2024-03-11T04:52:56.421Z,99053.94
2024-03-11T04:55:58.057Z,99057.69
2024-03-11T04:59:00.780Z,99060.44
2024-03-11T05:02:02.694Z,99058.88
2024-03-11T05:05:04.519Z,99062.50
2024-03-11T05:08:07.115Z,99061.81
2024-03-11T05:11:09.116Z,99073.16
2024-03-11T05:14:10.636Z,99064.59
2024-03-11T05:17:14.068Z,99068.25
2024-03-11T05:20:16.311Z,99067.75
2024-03-11T05:23:18.443Z,99072.16
2024-03-11T05:26:19.929Z,99075.00
2024-03-11T05:29:21.481Z,99079.72
2024-03-11T05:32:22.935Z,99079.72
2024-03-11T05:35:25.917Z,99079.06
2024-03-11T05:38:27.800Z,99084.47
2024-03-11T05:41:29.640Z,99090.34
2024-03-11T05:44:31.134Z,99091.38
2024-03-11T05:47:32.639Z,99087.84
2024-03-11T05:50:34.282Z,99101.34
2024-03-11T05:53:38.349Z,99102.84
2024-03-11T05:56:39.877Z,99103.38
2024-03-11T05:59:41.425Z,99105.84
2024-03-11T06:02:43.604Z,99110.72
2024-03-11T06:05:45.577Z,99112.00
2024-03-11T06:08:47.681Z,99121.50
2024-03-11T06:11:50.246Z,99124.22
2024-03-11T06:14:52.531Z,99129.72
2024-03-11T06:17:54.457Z,99126.44
2024-03-11T06:20:56.141Z,99138.50
2024-03-11T06:24:00.255Z,99144.72
2024-03-11T06:27:01.726Z,99140.59
2024-03-11T06:30:04.182Z,99155.31
2024-03-11T06:33:10.666Z,99152.53
2024-03-11T06:36:15.232Z,99162.63
2024-03-11T06:39:17.880Z,99159.09
2024-03-11T06:42:19.369Z,99158.81
2024-03-11T06:45:21.326Z,99158.16
2024-03-11T06:48:23.888Z,99160.13
2024-03-11T06:51:25.720Z,99173.34
2024-03-11T06:54:27.254Z,99174.69
2024-03-11T06:57:28.705Z,99180.63
2024-03-11T07:00:30.205Z,99182.06
2024-03-11T07:03:31.758Z,99196.78
2024-03-11T07:06:33.201Z,99190.75
2024-03-11T07:09:35.261Z,99200.41
2024-03-11T07:12:36.848Z,99198.47
2024-03-11T07:15:38.330Z,99205.66
2024-03-11T07:18:43.187Z,99207.38
2024-03-11T07:21:46.501Z,99210.66
2024-03-11T07:24:48.009Z,99210.84
2024-03-11T07:27:49.848Z,99218.88
2024-03-11T07:30:52.426Z,99224.34
2024-03-11T07:33:53.987Z,99230.38
2024-03-11T07:36:57.175Z,99222.50
2024-03-11T07:39:58.759Z,99220.44
2024-03-11T07:43:00.632Z,99224.91
2024-03-11T07:46:04.884Z,99233.88
2024-03-11T07:49:12.467Z,99232.44
2024-03-11T07:52:14.322Z,99242.34
2024-03-11T07:55:15.839Z,99241.03
2024-03-11T07:58:17.449Z,99256.91
2024-03-11T08:01:22.464Z,99261.72
2024-03-11T08:04:25.509Z,99255.41
2024-03-11T08:07:26.999Z,99261.44
2024-03-11T08:10:28.946Z,99268.44
2024-03-11T08:13:32.208Z,99271.88
2024-03-11T08:16:35.011Z,99269.38
2024-03-11T08:19:36.555Z,99280.53
2024-03-11T08:22:48.638Z,99283.09
2024-03-11T08:25:52.544Z,99281.38
2024-03-11T08:28:54.139Z,99296.03
2024-03-11T08:31:55.644Z,99294.16
2024-03-11T08:34:57.995Z,99294.78
2024-03-11T08:37:59.912Z,99305.31
2024-03-11T08:41:02.021Z,99301.28
2024-03-11T08:44:03.616Z,99305.00
2024-03-11T08:47:10.240Z,99305.50
2024-03-11T08:50:18.076Z,99301.16
2024-03-11T08:53:20.304Z,99305.75
2024-03-11T08:56:22.713Z,99299.66
2024-03-11T08:59:24.361Z,99304.41
2024-03-11T09:02:28.787Z,99311.09
2024-03-11T09:05:30.387Z,99315.53
2024-03-11T09:08:31.866Z,99323.56
2024-03-11T09:11:33.588Z,99324.94
2024-03-11T09:14:35.243Z,99334.47
2024-03-11T09:17:36.725Z,99329.38
2024-03-11T09:20:38.190Z,99337.38
2024-03-11T09:23:39.638Z,99335.75
2024-03-11T09:26:41.173Z,99335.91
2024-03-11T09:29:42.717Z,99342.13
2024-03-11T09:32:45.834Z,99339.06
2024-03-11T09:35:48.672Z,99352.25
2024-03-11T09:38:50.159Z,99362.56
2024-03-11T09:41:55.302Z,99372.13
2024-03-11T09:44:57.529Z,99369.41
2024-03-11T09:48:01.049Z,99374.41
2024-03-11T09:51:03.944Z,99378.25
2024-03-11T09:54:06.629Z,99370.69
2024-03-11T09:57:08.261Z,99381.84
2024-03-11T10:00:14.125Z,99377.03
2024-03-11T10:03:26.092Z,99378.16
2024-03-11T10:06:28.401Z,99376.44
2024-03-11T10:09:32.846Z,99377.03
2024-03-11T10:12:35.563Z,99378.59
2024-03-11T10:15:37.243Z,99371.94
2024-03-11T10:18:38.816Z,99374.06
2024-03-11T10:21:41.706Z,99384.63
2024-03-11T10:24:45.979Z,99384.25
2024-03-11T10:27:48.827Z,99381.31
2024-03-11T10:30:51.303Z,99386.75
2024-03-11T10:33:55.140Z,99378.88
2024-03-11T10:36:58.816Z,99379.63
2024-03-11T10:40:05.283Z,99387.84
2024-03-11T10:43:23.961Z,99378.31
2024-03-11T10:46:25.390Z,99373.47
2024-03-11T10:49:28.517Z,99381.59
2024-03-11T10:52:34.494Z,99377.81
2024-03-11T10:55:39.808Z,99385.00
2024-03-11T10:58:43.723Z,99376.47
2024-03-11T11:01:55.384Z,99383.66
2024-03-11T11:04:59.085Z,99387.94
2024-03-11T11:08:03.570Z,99390.56
2024-03-11T11:11:06.647Z,99386.31
2024-03-11T11:14:12.480Z,99389.34
2024-03-11T11:17:18.313Z,99396.56
2024-03-11T11:20:32.315Z,99396.03
2024-03-11T11:23:36.695Z,99397.78
2024-03-11T11:26:42.417Z,99403.38
2024-03-11T11:29:44.196Z,99394.69
2024-03-11T11:32:45.875Z,99398.91
2024-03-11T11:35:47.391Z,99394.34
2024-03-11T11:38:50.005Z,99397.41
2024-03-11T11:41:54.747Z,99401.69
2024-03-11T11:44:58.217Z,99396.25
2024-03-11T11:48:14.099Z,99400.09
2024-03-11T11:51:15.597Z,99411.91
2024-03-11T11:54:35.796Z,99405.66
2024-03-11T11:57:40.233Z,99403.34
2024-03-11T12:00:45.400Z,99405.59
2024-03-11T12:03:47.768Z,99405.50
2024-03-11T12:06:51.016Z,99395.38
2024-03-11T12:09:57.371Z,99408.34
2024-03-11T12:12:59.404Z,99391.25
2024-03-11T12:16:21.706Z,99387.09
2024-03-11T12:19:23.242Z,99390.69
2024-03-11T12:22:26.667Z,99386.00
2024-03-11T12:25:29.718Z,99386.53
2024-03-11T12:28:31.289Z,99370.00
2024-03-11T12:31:37.289Z,99380.38
2024-03-11T12:34:40.012Z,99381.91
2024-03-11T12:37:43.865Z,99388.88
2024-03-11T12:40:45.924Z,99386.69
2024-03-11T12:43:47.708Z,99391.19
2024-03-11T12:46:57.149Z,99389.59
2024-03-11T12:49:59.757Z,99392.81
2024-03-11T12:53:03.412Z,99397.09
2024-03-11T12:56:08.436Z,99387.81
2024-03-11T12:59:16.020Z,99396.16
2024-03-11T13:02:21.827Z,99392.09
2024-03-11T13:05:24.200Z,99388.66
2024-03-11T13:08:26.062Z,99391.25
2024-03-11T13:11:28.714Z,99386.00
2024-03-11T13:14:31.172Z,99401.25
2024-03-11T13:17:33.646Z,99402.91
2024-03-11T13:20:38.904Z,99395.28
2024-03-11T13:23:44.226Z,99404.28
2024-03-11T13:26:49.563Z,99396.50
2024-03-11T13:29:51.054Z,99406.53
2024-03-11T13:32:52.556Z,99412.81
2024-03-11T13:35:54.771Z,99400.00
2024-03-11T13:38:56.245Z,99412.00
2024-03-11T13:42:02.044Z,99418.50
2024-03-11T14:45:33.566Z,99456.75
2024-03-11T14:48:36.750Z,99459.63
2024-03-11T14:51:42.640Z,99472.47
2024-03-11T14:54:44.219Z,99464.81
2024-03-11T14:57:46.978Z,99462.97
2024-03-11T15:00:50.787Z,99466.19
2024-03-11T15:03:52.716Z,99465.75
2024-03-11T15:06:54.436Z,99474.38
2024-03-11T15:10:00.055Z,99477.53
2024-03-11T15:13:02.733Z,99470.28
2024-03-11T15:16:04.899Z,99479.03
2024-03-11T15:19:06.406Z,99482.59
2024-03-11T15:22:07.914Z,99483.75
2024-03-11T15:25:10.234Z,99491.38
2024-03-11T15:28:13.576Z,99497.25
2024-03-11T15:31:15.010Z,99495.84
2024-03-11T15:34:16.771Z,99497.91
2024-03-11T15:37:20.148Z,99507.41
2024-03-11T15:40:22.393Z,99511.50
2024-03-11T15:43:26.041Z,99512.56
2024-03-11T15:46:29.339Z,99510.16
2024-03-11T15:49:34.128Z,99516.06
2024-03-11T15:52:35.757Z,99508.75
2024-03-11T15:55:37.272Z,99519.69
2024-03-11T15:58:38.746Z,99522.34
2024-03-11T16:01:41.740Z,99528.53
2024-03-11T16:04:43.374Z,99518.47
2024-03-11T16:07:48.981Z,99528.19
2024-03-11T16:10:50.507Z,99530.69
2024-03-11T16:13:54.288Z,99523.91
2024-03-11T16:16:56.482Z,99539.16
2024-03-11T16:19:58.581Z,99541.16
2024-03-11T16:23:06.775Z,99540.84
2024-03-11T16:26:08.388Z,99549.03
2024-03-11T16:29:15.653Z,99554.34
2024-03-11T16:32:18.420Z,99562.38
2024-03-11T16:35:35.563Z,99556.06
2024-03-11T16:38:37.097Z,99563.84
2024-03-11T16:41:41.496Z,99566.13
2024-03-11T16:44:45.403Z,99572.28
2024-03-11T16:47:49.990Z,99570.69
2024-03-11T16:50:54.140Z,99579.66
2024-03-11T16:53:55.621Z,99588.84
2024-03-11T16:56:57.037Z,99593.91
2024-03-11T16:59:59.744Z,99589.75
2024-03-11T17:03:02.390Z,99596.56
2024-03-11T17:06:03.968Z,99595.78
2024-03-11T17:09:05.611Z,99601.28
2024-03-11T17:12:10.720Z,99600.16
2024-03-11T17:15:15.258Z,99603.84
2024-03-11T17:18:21.291Z,99601.94
2024-03-11T17:21:23.061Z,99610.38
2024-03-11T17:24:33.441Z,99620.13
2024-03-11T17:27:35.624Z,99619.78
2024-03-11T17:30:40.884Z,99626.22
2024-03-11T17:33:42.449Z,99630.09
2024-03-11T17:36:43.939Z,99634.59
2024-03-11T17:39:45.468Z,99641.22
2024-03-11T17:42:49.552Z,99651.63
2024-03-11T17:45:51.411Z,99658.06
2024-03-11T17:48:53.029Z,99668.06
2024-03-11T17:51:56.392Z,99669.63
2024-03-11T17:54:58.614Z,99672.69
2024-03-11T17:58:01.135Z,99678.31
2024-03-11T18:01:03.213Z,99677.81
2024-03-11T18:04:06.324Z,99677.13
2024-03-11T18:07:07.993Z,99682.25
2024-03-11T18:10:09.828Z,99688.03
2024-03-11T18:13:17.765Z,99699.09
2024-03-11T18:16:19.335Z,99700.06
2024-03-11T18:19:25.432Z,99701.75
2024-03-11T18:22:28.389Z,99700.81
2024-03-11T18:25:36.477Z,99706.28
2024-03-11T18:28:37.988Z,99709.84
2024-03-11T18:31:39.532Z,99710.31
2024-03-11T18:34:41.030Z,99720.31
2024-03-11T18:37:43.005Z,99722.59
2024-03-11T18:40:44.691Z,99722.38
2024-03-11T18:43:46.132Z,99725.44
2024-03-11T18:46:48.205Z,99727.22
2024-03-11T18:49:50.850Z,99726.59
2024-03-11T18:52:59.703Z,99738.19
2024-03-11T18:56:02.852Z,99743.72
2024-03-11T18:59:06.962Z,99744.09
2024-03-11T19:02:08.826Z,99751.69
2024-03-11T19:05:10.283Z,99750.50
2024-03-11T19:08:12.297Z,99763.06
2024-03-11T19:11:13.793Z,99762.31
2024-03-11T19:14:16.284Z,99768.38
2024-03-11T19:17:19.802Z,99773.66
2024-03-11T19:20:23.155Z,99764.94
2024-03-11T19:23:25.023Z,99763.09
2024-03-11T19:26:26.518Z,99774.06
2024-03-11T19:29:28.200Z,99771.81
2024-03-11T19:32:29.857Z,99779.91
2024-03-11T19:35:31.609Z,99786.31
2024-03-11T19:39:01.083Z,99789.88
2024-03-11T19:42:25.434Z,99795.78
2024-03-11T19:45:42.424Z,99809.09
2024-03-11T19:49:24.794Z,99814.78
2024-03-11T19:53:10.011Z,99815.06
2024-03-11T19:56:33.087Z,99821.00
2024-03-11T20:00:29.525Z,99818.69
2024-03-11T20:03:59.361Z,99824.03
2024-03-11T20:07:22.274Z,99830.81
2024-03-11T20:11:07.343Z,99838.06
2024-03-11T20:14:47.153Z,99850.50
2024-03-11T20:18:11.004Z,99855.09
2024-03-11T20:21:53.891Z,99859.81
2024-03-11T20:25:33.322Z,99862.47
2024-03-11T20:29:01.901Z,99870.69
2024-03-11T20:32:12.273Z,99877.00
2024-03-11T20:35:13.796Z,99881.44
2024-03-11T20:38:15.370Z,99881.59
2024-03-11T20:41:17.310Z,99886.03
2024-03-11T20:44:18.776Z,99892.25
2024-03-11T20:47:20.308Z,99889.91
2024-03-11T20:50:21.855Z,99903.19
2024-03-11T20:53:24.334Z,99907.72
2024-03-11T20:56:26.088Z,99904.41
2024-03-11T20:59:27.593Z,99911.56
2024-03-11T21:02:29.156Z,99921.34
2024-03-11T21:05:30.632Z,99909.22
2024-03-11T21:08:34.960Z,99924.25
2024-03-11T21:11:37.433Z,99935.09
2024-03-11T21:14:38.902Z,99931.81
2024-03-11T21:17:42.545Z,99936.34
2024-03-11T21:20:56.802Z,99945.66
2024-03-11T21:24:08.374Z,99946.13
2024-03-11T21:27:39.437Z,99960.19
2024-03-11T21:30:42.832Z,99960.59
2024-03-11T21:33:45.169Z,99962.41
2024-03-11T21:36:46.741Z,99965.97
2024-03-11T21:39:53.781Z,99964.47
2024-03-11T21:42:55.757Z,99972.34
2024-03-11T21:45:57.579Z,99973.16
2024-03-11T21:48:59.094Z,99975.78
2024-03-11T21:52:00.760Z,99975.00
2024-03-11T21:55:03.059Z,99980.25
2024-03-11T21:58:05.019Z,99990.84
2024-03-11T22:01:08.143Z,99996.09
2024-03-11T22:04:10.019Z,100001.16
2024-03-11T22:07:13.331Z,100001.97
2024-03-11T22:10:15.600Z,100004.59
2024-03-11T22:13:18.823Z,100005.50
2024-03-11T22:16:20.291Z,100014.31
2024-03-11T22:19:21.739Z,100012.69
2024-03-11T22:22:23.159Z,100012.97
2024-03-11T22:25:25.337Z,100017.44
2024-03-11T22:28:26.865Z,100018.31
2024-03-11T22:31:28.306Z,100026.13
2024-03-11T22:34:31.281Z,100031.28
2024-03-11T22:37:32.722Z,100042.00
2024-03-11T22:40:34.678Z,100044.97
2024-03-11T22:43:36.820Z,100051.09
2024-03-11T22:46:41.079Z,100058.19
2024-03-11T22:49:42.641Z,100054.06
2024-03-11T22:52:44.253Z,100048.03
2024-03-11T22:55:46.046Z,100049.25
2024-03-11T22:58:47.912Z,100043.41
2024-03-11T23:01:49.817Z,100043.44
2024-03-11T23:04:51.750Z,100045.25
2024-03-11T23:07:54.393Z,100052.41
2024-03-11T23:10:56.902Z,100045.25
2024-03-11T23:13:59.216Z,100050.50
2024-03-11T23:17:03.139Z,100059.19
2024-03-11T23:20:05.006Z,100061.97
2024-03-11T23:23:08.991Z,100060.31
2024-03-11T23:26:12.107Z,100059.47
2024-03-11T23:29:13.680Z,100062.09
2024-03-11T23:32:15.353Z,100070.78
2024-03-11T23:35:16.844Z,100067.13
2024-03-11T23:38:18.283Z,100065.56
2024-03-11T23:41:19.810Z,100067.44
2024-03-11T23:44:21.362Z,100071.91
2024-03-11T23:47:23.594Z,100074.69
2024-03-11T23:50:25.614Z,100085.44
2024-03-11T23:53:27.987Z,100091.56
2024-03-11T23:56:31.323Z,100082.00
2024-03-11T23:59:33.502Z,100087.25
